sensor_id;sensor_type;location;lat;lon;timestamp;P1;durP1;ratioP1;P2;durP2;ratioP2
3207;SDS011;1616;52.394;9.756;2023-06-26T00:02:01;8.60;;;8.10;;
3207;SDS011;1616;52.394;9.756;2023-06-26T00:04:27;10.13;;;8.77;;
3207;SDS011;1616;52.394;9.756;2023-06-26T00:06:53;9.87;;;9.13;;
3207;SDS011;1616;52.394;9.756;2023-06-26T00:09:19;10.57;;;9.70;;
3207;SDS011;1616;52.394;9.756;2023-06-26T00:11:44;8.87;;;8.37;;
3207;SDS011;1616;52.394;9.756;2023-06-26T00:14:10;9.40;;;9.00;;
3207;SDS011;1616;52.394;9.756;2023-06-26T00:16:35;10.77;;;9.67;;
3207;SDS011;1616;52.394;9.756;2023-06-26T00:19:01;9.67;;;9.00;;
3207;SDS011;1616;52.394;9.756;2023-06-26T00:21:27;9.70;;;9.10;;
3207;SDS011;1616;52.394;9.756;2023-06-26T00:23:52;9.10;;;8.60;;
3207;SDS011;1616;52.394;9.756;2023-06-26T00:26:18;9.60;;;9.13;;
3207;SDS011;1616;52.394;9.756;2023-06-26T00:28:44;10.60;;;9.80;;
3207;SDS011;1616;52.394;9.756;2023-06-26T00:31:09;10.07;;;9.47;;
3207;SDS011;1616;52.394;9.756;2023-06-26T00:33:35;10.60;;;9.67;;
3207;SDS011;1616;52.394;9.756;2023-06-26T00:36:00;8.73;;;8.20;;
3207;SDS011;1616;52.394;9.756;2023-06-26T00:38:26;10.07;;;9.43;;
3207;SDS011;1616;52.394;9.756;2023-06-26T00:40:52;10.53;;;9.80;;
3207;SDS011;1616;52.394;9.756;2023-06-26T00:43:19;10.23;;;8.73;;
3207;SDS011;1616;52.394;9.756;2023-06-26T00:45:45;10.07;;;9.40;;
3207;SDS011;1616;52.394;9.756;2023-06-26T00:48:10;11.03;;;10.17;;
3207;SDS011;1616;52.394;9.756;2023-06-26T00:50:37;9.67;;;9.10;;
3207;SDS011;1616;52.394;9.756;2023-06-26T00:53:03;9.30;;;8.70;;
3207;SDS011;1616;52.394;9.756;2023-06-26T00:55:29;9.50;;;9.07;;
3207;SDS011;1616;52.394;9.756;2023-06-26T00:57:55;9.30;;;8.67;;
3207;SDS011;1616;52.394;9.756;2023-06-26T01:00:21;9.27;;;8.70;;
3207;SDS011;1616;52.394;9.756;2023-06-26T01:02:47;10.83;;;10.13;;
3207;SDS011;1616;52.394;9.756;2023-06-26T01:05:13;9.20;;;8.60;;
3207;SDS011;1616;52.394;9.756;2023-06-26T01:07:48;9.43;;;8.77;;
3207;SDS011;1616;52.394;9.756;2023-06-26T01:10:15;9.27;;;8.87;;
3207;SDS011;1616;52.394;9.756;2023-06-26T01:12:41;9.07;;;8.47;;
3207;SDS011;1616;52.394;9.756;2023-06-26T01:15:06;8.83;;;8.43;;
3207;SDS011;1616;52.394;9.756;2023-06-26T01:17:33;8.97;;;8.47;;
3207;SDS011;1616;52.394;9.756;2023-06-26T01:20:00;8.20;;;7.70;;
3207;SDS011;1616;52.394;9.756;2023-06-26T01:28:15;9.03;;;8.47;;
3207;SDS011;1616;52.394;9.756;2023-06-26T01:30:43;8.30;;;7.77;;
3207;SDS011;1616;52.394;9.756;2023-06-26T01:33:11;7.67;;;7.27;;
3207;SDS011;1616;52.394;9.756;2023-06-26T01:35:38;7.10;;;6.80;;
3207;SDS011;1616;52.394;9.756;2023-06-26T01:38:11;7.70;;;6.70;;
3207;SDS011;1616;52.394;9.756;2023-06-26T01:40:37;7.40;;;6.90;;
3207;SDS011;1616;52.394;9.756;2023-06-26T01:43:04;6.97;;;6.47;;
3207;SDS011;1616;52.394;9.756;2023-06-26T01:45:35;7.37;;;6.70;;
3207;SDS011;1616;52.394;9.756;2023-06-26T01:48:02;6.97;;;6.50;;
3207;SDS011;1616;52.394;9.756;2023-06-26T01:50:31;6.87;;;6.40;;
3207;SDS011;1616;52.394;9.756;2023-06-26T01:55:32;6.67;;;6.30;;
3207;SDS011;1616;52.394;9.756;2023-06-26T01:58:11;6.60;;;6.13;;
3207;SDS011;1616;52.394;9.756;2023-06-26T02:00:39;7.57;;;7.07;;
3207;SDS011;1616;52.394;9.756;2023-06-26T02:03:05;5.43;;;5.23;;
3207;SDS011;1616;52.394;9.756;2023-06-26T02:05:32;6.30;;;6.00;;
3207;SDS011;1616;52.394;9.756;2023-06-26T02:07:58;6.87;;;6.57;;
3207;SDS011;1616;52.394;9.756;2023-06-26T02:10:24;5.60;;;5.40;;
3207;SDS011;1616;52.394;9.756;2023-06-26T02:12:49;7.40;;;6.70;;
3207;SDS011;1616;52.394;9.756;2023-06-26T02:15:15;6.07;;;5.40;;
3207;SDS011;1616;52.394;9.756;2023-06-26T02:17:40;6.80;;;6.40;;
3207;SDS011;1616;52.394;9.756;2023-06-26T02:20:06;5.40;;;5.20;;
3207;SDS011;1616;52.394;9.756;2023-06-26T02:22:34;7.57;;;7.20;;
3207;SDS011;1616;52.394;9.756;2023-06-26T02:24:59;5.63;;;5.43;;
3207;SDS011;1616;52.394;9.756;2023-06-26T02:27:25;5.10;;;4.80;;
3207;SDS011;1616;52.394;9.756;2023-06-26T02:29:50;5.93;;;5.70;;
3207;SDS011;1616;52.394;9.756;2023-06-26T02:32:16;6.53;;;6.10;;
3207;SDS011;1616;52.394;9.756;2023-06-26T02:34:42;5.77;;;5.47;;
3207;SDS011;1616;52.394;9.756;2023-06-26T02:37:07;6.03;;;5.53;;
3207;SDS011;1616;52.394;9.756;2023-06-26T02:39:33;12.77;;;5.70;;
3207;SDS011;1616;52.394;9.756;2023-06-26T02:41:59;5.10;;;4.90;;
3207;SDS011;1616;52.394;9.756;2023-06-26T02:44:25;5.50;;;5.27;;
3207;SDS011;1616;52.394;9.756;2023-06-26T02:46:51;5.27;;;4.97;;
3207;SDS011;1616;52.394;9.756;2023-06-26T02:49:16;7.33;;;5.33;;
3207;SDS011;1616;52.394;9.756;2023-06-26T02:51:42;6.40;;;6.00;;
3207;SDS011;1616;52.394;9.756;2023-06-26T02:54:08;5.30;;;5.07;;
3207;SDS011;1616;52.394;9.756;2023-06-26T02:56:34;5.60;;;5.20;;
3207;SDS011;1616;52.394;9.756;2023-06-26T02:58:59;5.60;;;5.30;;
3207;SDS011;1616;52.394;9.756;2023-06-26T03:01:25;4.50;;;4.30;;
3207;SDS011;1616;52.394;9.756;2023-06-26T03:03:51;5.10;;;4.80;;
3207;SDS011;1616;52.394;9.756;2023-06-26T03:06:17;5.90;;;4.80;;
3207;SDS011;1616;52.394;9.756;2023-06-26T03:08:43;4.70;;;4.50;;
3207;SDS011;1616;52.394;9.756;2023-06-26T03:11:08;4.50;;;4.30;;
3207;SDS011;1616;52.394;9.756;2023-06-26T03:13:35;8.20;;;4.90;;
3207;SDS011;1616;52.394;9.756;2023-06-26T03:16:01;4.47;;;4.27;;
3207;SDS011;1616;52.394;9.756;2023-06-26T03:18:28;5.10;;;4.80;;
3207;SDS011;1616;52.394;9.756;2023-06-26T03:20:57;4.40;;;4.10;;
3207;SDS011;1616;52.394;9.756;2023-06-26T03:23:23;5.70;;;5.40;;
3207;SDS011;1616;52.394;9.756;2023-06-26T03:25:49;5.37;;;5.07;;
3207;SDS011;1616;52.394;9.756;2023-06-26T03:28:15;5.60;;;5.27;;
3207;SDS011;1616;52.394;9.756;2023-06-26T03:30:41;5.43;;;5.03;;
3207;SDS011;1616;52.394;9.756;2023-06-26T03:33:07;9.40;;;4.90;;
3207;SDS011;1616;52.394;9.756;2023-06-26T03:35:32;4.60;;;4.10;;
3207;SDS011;1616;52.394;9.756;2023-06-26T03:37:58;4.50;;;4.20;;
3207;SDS011;1616;52.394;9.756;2023-06-26T03:40:25;4.17;;;3.80;;
3207;SDS011;1616;52.394;9.756;2023-06-26T03:42:51;3.90;;;3.60;;
3207;SDS011;1616;52.394;9.756;2023-06-26T03:45:17;4.40;;;4.00;;
3207;SDS011;1616;52.394;9.756;2023-06-26T03:47:44;4.47;;;3.87;;
3207;SDS011;1616;52.394;9.756;2023-06-26T03:50:14;5.70;;;5.20;;
3207;SDS011;1616;52.394;9.756;2023-06-26T03:52:40;4.67;;;4.30;;
3207;SDS011;1616;52.394;9.756;2023-06-26T03:55:06;3.80;;;3.50;;
3207;SDS011;1616;52.394;9.756;2023-06-26T03:57:32;4.43;;;4.23;;
3207;SDS011;1616;52.394;9.756;2023-06-26T03:59:57;4.43;;;4.03;;
3207;SDS011;1616;52.394;9.756;2023-06-26T04:02:23;3.60;;;3.00;;
3207;SDS011;1616;52.394;9.756;2023-06-26T04:04:48;3.83;;;3.63;;
3207;SDS011;1616;52.394;9.756;2023-06-26T04:07:14;3.63;;;3.43;;
3207;SDS011;1616;52.394;9.756;2023-06-26T04:09:40;3.67;;;3.47;;
3207;SDS011;1616;52.394;9.756;2023-06-26T04:12:06;5.17;;;4.87;;
3207;SDS011;1616;52.394;9.756;2023-06-26T04:14:31;4.10;;;3.60;;
3207;SDS011;1616;52.394;9.756;2023-06-26T04:16:59;3.70;;;3.50;;
3207;SDS011;1616;52.394;9.756;2023-06-26T04:19:27;4.10;;;3.50;;
3207;SDS011;1616;52.394;9.756;2023-06-26T04:21:52;3.43;;;3.23;;
3207;SDS011;1616;52.394;9.756;2023-06-26T04:24:18;3.50;;;3.30;;
3207;SDS011;1616;52.394;9.756;2023-06-26T04:26:44;5.17;;;4.30;;
3207;SDS011;1616;52.394;9.756;2023-06-26T04:29:13;8.23;;;3.73;;
3207;SDS011;1616;52.394;9.756;2023-06-26T04:31:39;4.17;;;2.83;;
3207;SDS011;1616;52.394;9.756;2023-06-26T04:34:05;4.00;;;3.80;;
3207;SDS011;1616;52.394;9.756;2023-06-26T04:36:31;3.77;;;3.47;;
3207;SDS011;1616;52.394;9.756;2023-06-26T04:38:58;3.53;;;3.20;;
3207;SDS011;1616;52.394;9.756;2023-06-26T04:41:24;3.10;;;2.87;;
3207;SDS011;1616;52.394;9.756;2023-06-26T04:43:50;3.53;;;3.23;;
3207;SDS011;1616;52.394;9.756;2023-06-26T04:46:16;3.43;;;3.23;;
3207;SDS011;1616;52.394;9.756;2023-06-26T04:48:42;4.43;;;3.10;;
3207;SDS011;1616;52.394;9.756;2023-06-26T04:51:10;3.60;;;3.30;;
3207;SDS011;1616;52.394;9.756;2023-06-26T04:53:36;3.80;;;3.27;;
3207;SDS011;1616;52.394;9.756;2023-06-26T04:56:02;4.03;;;3.47;;
3207;SDS011;1616;52.394;9.756;2023-06-26T04:58:28;3.80;;;3.60;;
3207;SDS011;1616;52.394;9.756;2023-06-26T05:00:54;4.47;;;4.27;;
3207;SDS011;1616;52.394;9.756;2023-06-26T05:03:19;3.93;;;3.73;;
3207;SDS011;1616;52.394;9.756;2023-06-26T05:05:45;4.20;;;3.80;;
3207;SDS011;1616;52.394;9.756;2023-06-26T05:10:40;4.10;;;3.80;;
3207;SDS011;1616;52.394;9.756;2023-06-26T05:13:05;4.13;;;3.77;;
3207;SDS011;1616;52.394;9.756;2023-06-26T05:15:31;3.73;;;3.40;;
3207;SDS011;1616;52.394;9.756;2023-06-26T05:17:56;2.90;;;2.70;;
3207;SDS011;1616;52.394;9.756;2023-06-26T05:20:22;2.93;;;2.73;;
3207;SDS011;1616;52.394;9.756;2023-06-26T05:22:48;3.00;;;2.83;;
3207;SDS011;1616;52.394;9.756;2023-06-26T05:25:15;3.47;;;3.23;;
3207;SDS011;1616;52.394;9.756;2023-06-26T05:27:41;3.33;;;3.13;;
3207;SDS011;1616;52.394;9.756;2023-06-26T05:30:07;3.40;;;3.20;;
3207;SDS011;1616;52.394;9.756;2023-06-26T05:32:34;2.63;;;2.43;;
3207;SDS011;1616;52.394;9.756;2023-06-26T05:35:01;2.77;;;2.57;;
3207;SDS011;1616;52.394;9.756;2023-06-26T05:37:28;3.07;;;2.87;;
3207;SDS011;1616;52.394;9.756;2023-06-26T05:39:55;3.87;;;3.17;;
3207;SDS011;1616;52.394;9.756;2023-06-26T05:42:21;3.10;;;2.90;;
3207;SDS011;1616;52.394;9.756;2023-06-26T05:44:47;5.10;;;3.57;;
3207;SDS011;1616;52.394;9.756;2023-06-26T05:47:13;3.30;;;2.77;;
3207;SDS011;1616;52.394;9.756;2023-06-26T05:49:38;3.23;;;3.03;;
3207;SDS011;1616;52.394;9.756;2023-06-26T05:52:04;3.23;;;2.93;;
3207;SDS011;1616;52.394;9.756;2023-06-26T05:54:30;4.05;;;3.65;;
3207;SDS011;1616;52.394;9.756;2023-06-26T05:56:57;5.57;;;2.80;;
3207;SDS011;1616;52.394;9.756;2023-06-26T05:59:26;2.80;;;2.70;;
3207;SDS011;1616;52.394;9.756;2023-06-26T06:01:52;2.60;;;2.50;;
3207;SDS011;1616;52.394;9.756;2023-06-26T06:04:18;3.50;;;3.20;;
3207;SDS011;1616;52.394;9.756;2023-06-26T06:06:44;3.20;;;3.00;;
3207;SDS011;1616;52.394;9.756;2023-06-26T06:09:10;3.60;;;2.95;;
3207;SDS011;1616;52.394;9.756;2023-06-26T06:11:36;3.80;;;3.60;;
3207;SDS011;1616;52.394;9.756;2023-06-26T06:14:02;3.50;;;2.73;;
3207;SDS011;1616;52.394;9.756;2023-06-26T06:16:28;3.87;;;3.57;;
3207;SDS011;1616;52.394;9.756;2023-06-26T06:18:54;4.20;;;4.00;;
3207;SDS011;1616;52.394;9.756;2023-06-26T06:21:20;3.50;;;3.30;;
3207;SDS011;1616;52.394;9.756;2023-06-26T06:23:47;3.47;;;3.23;;
3207;SDS011;1616;52.394;9.756;2023-06-26T06:26:13;3.40;;;3.10;;
3207;SDS011;1616;52.394;9.756;2023-06-26T06:28:39;3.50;;;3.20;;
3207;SDS011;1616;52.394;9.756;2023-06-26T06:31:04;4.90;;;2.73;;
3207;SDS011;1616;52.394;9.756;2023-06-26T06:33:30;3.43;;;3.13;;
3207;SDS011;1616;52.394;9.756;2023-06-26T06:35:56;3.35;;;2.80;;
3207;SDS011;1616;52.394;9.756;2023-06-26T06:38:22;3.22;;;3.03;;
3207;SDS011;1616;52.394;9.756;2023-06-26T06:40:47;3.63;;;3.42;;
3207;SDS011;1616;52.394;9.756;2023-06-26T06:43:13;2.95;;;2.85;;
3207;SDS011;1616;52.394;9.756;2023-06-26T06:45:39;4.03;;;3.33;;
3207;SDS011;1616;52.394;9.756;2023-06-26T06:48:05;3.33;;;3.13;;
3207;SDS011;1616;52.394;9.756;2023-06-26T06:50:31;4.05;;;3.03;;
3207;SDS011;1616;52.394;9.756;2023-06-26T06:52:56;3.33;;;3.22;;
3207;SDS011;1616;52.394;9.756;2023-06-26T06:55:22;3.60;;;3.40;;
3207;SDS011;1616;52.394;9.756;2023-06-26T06:57:49;3.47;;;3.28;;
3207;SDS011;1616;52.394;9.756;2023-06-26T07:00:15;3.15;;;2.95;;
3207;SDS011;1616;52.394;9.756;2023-06-26T07:02:44;3.90;;;3.60;;
3207;SDS011;1616;52.394;9.756;2023-06-26T07:05:10;3.85;;;3.40;;
3207;SDS011;1616;52.394;9.756;2023-06-26T07:07:37;3.85;;;3.60;;
3207;SDS011;1616;52.394;9.756;2023-06-26T07:10:04;4.60;;;4.35;;
3207;SDS011;1616;52.394;9.756;2023-06-26T07:12:33;3.22;;;3.03;;
3207;SDS011;1616;52.394;9.756;2023-06-26T07:15:00;4.00;;;3.70;;
3207;SDS011;1616;52.394;9.756;2023-06-26T07:17:26;3.85;;;2.97;;
3207;SDS011;1616;52.394;9.756;2023-06-26T07:19:52;4.57;;;3.10;;
3207;SDS011;1616;52.394;9.756;2023-06-26T07:22:18;5.80;;;3.15;;
3207;SDS011;1616;52.394;9.756;2023-06-26T07:24:49;3.85;;;3.63;;
3207;SDS011;1616;52.394;9.756;2023-06-26T07:27:15;3.08;;;2.88;;
3207;SDS011;1616;52.394;9.756;2023-06-26T07:29:42;6.38;;;2.85;;
3207;SDS011;1616;52.394;9.756;2023-06-26T07:32:08;3.30;;;3.00;;
3207;SDS011;1616;52.394;9.756;2023-06-26T07:34:33;2.42;;;2.22;;
3207;SDS011;1616;52.394;9.756;2023-06-26T07:36:59;3.78;;;3.50;;
3207;SDS011;1616;52.394;9.756;2023-06-26T07:39:25;3.38;;;3.17;;
3207;SDS011;1616;52.394;9.756;2023-06-26T07:41:51;2.80;;;2.60;;
3207;SDS011;1616;52.394;9.756;2023-06-26T07:44:17;2.75;;;2.60;;
3207;SDS011;1616;52.394;9.756;2023-06-26T07:46:43;3.00;;;2.80;;
3207;SDS011;1616;52.394;9.756;2023-06-26T07:49:10;3.00;;;2.80;;
3207;SDS011;1616;52.394;9.756;2023-06-26T07:51:36;3.33;;;3.22;;
3207;SDS011;1616;52.394;9.756;2023-06-26T07:54:02;4.05;;;3.75;;
3207;SDS011;1616;52.394;9.756;2023-06-26T07:56:27;2.92;;;2.72;;
3207;SDS011;1616;52.394;9.756;2023-06-26T07:58:53;3.10;;;2.90;;
3207;SDS011;1616;52.394;9.756;2023-06-26T08:01:20;2.60;;;2.50;;
3207;SDS011;1616;52.394;9.756;2023-06-26T08:03:46;3.60;;;3.30;;
3207;SDS011;1616;52.394;9.756;2023-06-26T08:06:11;3.00;;;2.83;;
3207;SDS011;1616;52.394;9.756;2023-06-26T08:08:37;3.33;;;3.13;;
3207;SDS011;1616;52.394;9.756;2023-06-26T08:11:03;3.42;;;2.92;;
3207;SDS011;1616;52.394;9.756;2023-06-26T08:13:28;3.05;;;2.95;;
3207;SDS011;1616;52.394;9.756;2023-06-26T08:15:54;4.20;;;3.13;;
3207;SDS011;1616;52.394;9.756;2023-06-26T08:18:20;3.58;;;3.38;;
3207;SDS011;1616;52.394;9.756;2023-06-26T08:20:45;4.95;;;3.33;;
3207;SDS011;1616;52.394;9.756;2023-06-26T08:23:11;3.22;;;3.03;;
3207;SDS011;1616;52.394;9.756;2023-06-26T08:25:37;3.92;;;3.63;;
3207;SDS011;1616;52.394;9.756;2023-06-26T08:28:03;6.55;;;3.03;;
3207;SDS011;1616;52.394;9.756;2023-06-26T08:30:29;3.90;;;3.65;;
3207;SDS011;1616;52.394;9.756;2023-06-26T08:32:55;3.10;;;3.00;;
3207;SDS011;1616;52.394;9.756;2023-06-26T08:35:21;3.40;;;3.20;;
3207;SDS011;1616;52.394;9.756;2023-06-26T08:37:47;3.40;;;3.30;;
3207;SDS011;1616;52.394;9.756;2023-06-26T08:40:12;3.00;;;2.90;;
3207;SDS011;1616;52.394;9.756;2023-06-26T08:42:42;4.07;;;3.88;;
3207;SDS011;1616;52.394;9.756;2023-06-26T08:45:08;6.45;;;3.38;;
3207;SDS011;1616;52.394;9.756;2023-06-26T08:47:34;3.92;;;3.65;;
3207;SDS011;1616;52.394;9.756;2023-06-26T08:50:12;3.63;;;3.42;;
3207;SDS011;1616;52.394;9.756;2023-06-26T08:52:41;2.85;;;2.75;;
3207;SDS011;1616;52.394;9.756;2023-06-26T08:55:10;3.53;;;3.20;;
3207;SDS011;1616;52.394;9.756;2023-06-26T08:57:40;5.63;;;3.65;;
3207;SDS011;1616;52.394;9.756;2023-06-26T09:00:06;4.13;;;3.92;;
3207;SDS011;1616;52.394;9.756;2023-06-26T09:02:35;4.40;;;4.20;;
3207;SDS011;1616;52.394;9.756;2023-06-26T09:05:02;4.88;;;3.53;;
3207;SDS011;1616;52.394;9.756;2023-06-26T09:07:28;3.30;;;3.05;;
3207;SDS011;1616;52.394;9.756;2023-06-26T09:09:54;4.25;;;4.05;;
3207;SDS011;1616;52.394;9.756;2023-06-26T09:12:20;4.93;;;4.50;;
3207;SDS011;1616;52.394;9.756;2023-06-26T09:14:46;4.40;;;4.13;;
3207;SDS011;1616;52.394;9.756;2023-06-26T09:17:12;8.43;;;4.40;;
3207;SDS011;1616;52.394;9.756;2023-06-26T09:19:38;4.78;;;4.38;;
3207;SDS011;1616;52.394;9.756;2023-06-26T09:22:04;5.70;;;5.30;;
3207;SDS011;1616;52.394;9.756;2023-06-26T09:24:35;5.72;;;5.30;;
3207;SDS011;1616;52.394;9.756;2023-06-26T09:27:01;4.88;;;4.57;;
3207;SDS011;1616;52.394;9.756;2023-06-26T09:29:27;5.43;;;4.93;;
3207;SDS011;1616;52.394;9.756;2023-06-26T09:31:55;4.63;;;4.43;;
3207;SDS011;1616;52.394;9.756;2023-06-26T09:34:21;5.68;;;5.28;;
3207;SDS011;1616;52.394;9.756;2023-06-26T09:36:47;6.50;;;6.30;;
3207;SDS011;1616;52.394;9.756;2023-06-26T09:39:14;8.55;;;5.53;;
3207;SDS011;1616;52.394;9.756;2023-06-26T09:41:41;6.30;;;6.05;;
3207;SDS011;1616;52.394;9.756;2023-06-26T09:44:09;5.40;;;5.00;;
3207;SDS011;1616;52.394;9.756;2023-06-26T09:46:37;6.90;;;6.40;;
3207;SDS011;1616;52.394;9.756;2023-06-26T09:49:07;6.47;;;5.97;;
3207;SDS011;1616;52.394;9.756;2023-06-26T09:51:36;6.97;;;6.57;;
3207;SDS011;1616;52.394;9.756;2023-06-26T09:54:03;9.00;;;6.07;;
3207;SDS011;1616;52.394;9.756;2023-06-26T09:56:31;12.87;;;7.40;;
3207;SDS011;1616;52.394;9.756;2023-06-26T09:59:02;7.30;;;6.90;;
3207;SDS011;1616;52.394;9.756;2023-06-26T10:01:29;7.20;;;6.90;;
3207;SDS011;1616;52.394;9.756;2023-06-26T10:03:56;7.37;;;6.77;;
3207;SDS011;1616;52.394;9.756;2023-06-26T10:06:24;6.17;;;5.87;;
3207;SDS011;1616;52.394;9.756;2023-06-26T10:09:02;7.80;;;7.13;;
3207;SDS011;1616;52.394;9.756;2023-06-26T10:11:47;7.60;;;7.00;;
3207;SDS011;1616;52.394;9.756;2023-06-26T10:14:14;7.77;;;7.37;;
3207;SDS011;1616;52.394;9.756;2023-06-26T10:16:41;9.40;;;7.07;;
3207;SDS011;1616;52.394;9.756;2023-06-26T10:19:09;24.83;;;9.00;;
3207;SDS011;1616;52.394;9.756;2023-06-26T10:21:37;8.03;;;7.10;;
3207;SDS011;1616;52.394;9.756;2023-06-26T10:24:03;8.67;;;7.80;;
3207;SDS011;1616;52.394;9.756;2023-06-26T10:26:31;8.10;;;7.00;;
3207;SDS011;1616;52.394;9.756;2023-06-26T10:29:07;8.73;;;8.20;;
3207;SDS011;1616;52.394;9.756;2023-06-26T10:31:33;9.10;;;6.60;;
3207;SDS011;1616;52.394;9.756;2023-06-26T10:34:00;6.43;;;5.93;;
3207;SDS011;1616;52.394;9.756;2023-06-26T10:36:28;8.37;;;6.53;;
3207;SDS011;1616;52.394;9.756;2023-06-26T10:38:55;6.93;;;6.33;;
3207;SDS011;1616;52.394;9.756;2023-06-26T10:41:23;8.23;;;7.47;;
3207;SDS011;1616;52.394;9.756;2023-06-26T10:43:50;9.83;;;7.27;;
3207;SDS011;1616;52.394;9.756;2023-06-26T10:49:27;8.37;;;7.60;;
3207;SDS011;1616;52.394;9.756;2023-06-26T10:51:54;9.83;;;9.10;;
3207;SDS011;1616;52.394;9.756;2023-06-26T10:54:22;8.77;;;8.10;;
3207;SDS011;1616;52.394;9.756;2023-06-26T10:56:49;10.90;;;8.97;;
3207;SDS011;1616;52.394;9.756;2023-06-26T10:59:16;8.67;;;7.93;;
3207;SDS011;1616;52.394;9.756;2023-06-26T11:01:44;10.67;;;9.87;;
3207;SDS011;1616;52.394;9.756;2023-06-26T11:04:12;10.77;;;9.70;;
3207;SDS011;1616;52.394;9.756;2023-06-26T11:06:41;11.67;;;10.63;;
3207;SDS011;1616;52.394;9.756;2023-06-26T11:09:10;9.73;;;8.90;;
3207;SDS011;1616;52.394;9.756;2023-06-26T11:14:17;10.03;;;8.17;;
3207;SDS011;1616;52.394;9.756;2023-06-26T11:16:44;10.90;;;8.27;;
3207;SDS011;1616;52.394;9.756;2023-06-26T11:19:10;10.23;;;9.23;;
3207;SDS011;1616;52.394;9.756;2023-06-26T11:21:40;14.00;;;11.07;;
3207;SDS011;1616;52.394;9.756;2023-06-26T11:24:06;9.10;;;8.50;;
3207;SDS011;1616;52.394;9.756;2023-06-26T11:26:42;7.77;;;7.27;;
3207;SDS011;1616;52.394;9.756;2023-06-26T11:29:11;7.83;;;7.10;;
3207;SDS011;1616;52.394;9.756;2023-06-26T11:31:37;8.30;;;7.67;;
3207;SDS011;1616;52.394;9.756;2023-06-26T11:34:05;8.67;;;8.07;;
3207;SDS011;1616;52.394;9.756;2023-06-26T11:36:37;9.20;;;8.43;;
3207;SDS011;1616;52.394;9.756;2023-06-26T11:39:04;7.97;;;7.27;;
3207;SDS011;1616;52.394;9.756;2023-06-26T11:41:37;10.43;;;8.10;;
3207;SDS011;1616;52.394;9.756;2023-06-26T11:44:04;8.73;;;7.87;;
3207;SDS011;1616;52.394;9.756;2023-06-26T11:46:31;7.53;;;7.13;;
3207;SDS011;1616;52.394;9.756;2023-06-26T11:48:59;8.60;;;6.90;;
3207;SDS011;1616;52.394;9.756;2023-06-26T11:51:26;7.20;;;6.57;;
3207;SDS011;1616;52.394;9.756;2023-06-26T11:53:53;6.93;;;6.43;;
3207;SDS011;1616;52.394;9.756;2023-06-26T11:56:19;6.37;;;5.90;;
3207;SDS011;1616;52.394;9.756;2023-06-26T11:58:57;10.17;;;5.73;;
3207;SDS011;1616;52.394;9.756;2023-06-26T12:01:26;6.23;;;5.50;;
3207;SDS011;1616;52.394;9.756;2023-06-26T12:03:58;4.90;;;4.50;;
3207;SDS011;1616;52.394;9.756;2023-06-26T12:06:26;4.27;;;3.97;;
3207;SDS011;1616;52.394;9.756;2023-06-26T12:08:52;6.20;;;4.57;;
3207;SDS011;1616;52.394;9.756;2023-06-26T12:11:19;4.93;;;3.50;;
3207;SDS011;1616;52.394;9.756;2023-06-26T12:13:46;3.17;;;2.87;;
3207;SDS011;1616;52.394;9.756;2023-06-26T12:16:12;2.57;;;2.37;;
3207;SDS011;1616;52.394;9.756;2023-06-26T12:18:39;2.73;;;2.53;;
3207;SDS011;1616;52.394;9.756;2023-06-26T12:21:05;2.43;;;2.23;;
3207;SDS011;1616;52.394;9.756;2023-06-26T12:23:41;7.27;;;2.30;;
3207;SDS011;1616;52.394;9.756;2023-06-26T12:26:17;4.17;;;1.80;;
3207;SDS011;1616;52.394;9.756;2023-06-26T12:28:44;3.97;;;2.10;;
3207;SDS011;1616;52.394;9.756;2023-06-26T12:31:14;2.40;;;2.20;;
3207;SDS011;1616;52.394;9.756;2023-06-26T12:33:45;3.30;;;1.90;;
3207;SDS011;1616;52.394;9.756;2023-06-26T12:36:12;3.40;;;2.53;;
3207;SDS011;1616;52.394;9.756;2023-06-26T12:38:40;3.53;;;2.20;;
3207;SDS011;1616;52.394;9.756;2023-06-26T12:41:15;2.63;;;1.70;;
3207;SDS011;1616;52.394;9.756;2023-06-26T12:43:41;2.25;;;2.00;;
3207;SDS011;1616;52.394;9.756;2023-06-26T12:46:07;3.40;;;2.10;;
3207;SDS011;1616;52.394;9.756;2023-06-26T12:48:39;2.20;;;2.00;;
3207;SDS011;1616;52.394;9.756;2023-06-26T12:51:18;4.17;;;2.03;;
3207;SDS011;1616;52.394;9.756;2023-06-26T12:53:43;2.23;;;1.97;;
3207;SDS011;1616;52.394;9.756;2023-06-26T12:56:09;4.97;;;2.33;;
3207;SDS011;1616;52.394;9.756;2023-06-26T12:58:36;2.03;;;1.85;;
3207;SDS011;1616;52.394;9.756;2023-06-26T13:01:03;3.97;;;1.70;;
3207;SDS011;1616;52.394;9.756;2023-06-26T13:03:42;3.72;;;1.50;;
3207;SDS011;1616;52.394;9.756;2023-06-26T13:06:07;5.03;;;1.88;;
3207;SDS011;1616;52.394;9.756;2023-06-26T13:08:33;5.82;;;2.00;;
3207;SDS011;1616;52.394;9.756;2023-06-26T13:10:59;10.55;;;2.63;;
3207;SDS011;1616;52.394;9.756;2023-06-26T13:13:25;2.10;;;2.00;;
3207;SDS011;1616;52.394;9.756;2023-06-26T13:15:51;2.77;;;2.43;;
3207;SDS011;1616;52.394;9.756;2023-06-26T13:18:17;1.90;;;1.80;;
3207;SDS011;1616;52.394;9.756;2023-06-26T13:20:42;2.43;;;1.80;;
3207;SDS011;1616;52.394;9.756;2023-06-26T13:23:08;1.63;;;1.53;;
3207;SDS011;1616;52.394;9.756;2023-06-26T13:25:34;3.13;;;1.47;;
3207;SDS011;1616;52.394;9.756;2023-06-26T13:27:59;4.73;;;1.60;;
3207;SDS011;1616;52.394;9.756;2023-06-26T13:30:25;2.73;;;1.53;;
3207;SDS011;1616;52.394;9.756;2023-06-26T13:32:50;2.57;;;1.43;;
3207;SDS011;1616;52.394;9.756;2023-06-26T13:35:16;8.00;;;1.33;;
3207;SDS011;1616;52.394;9.756;2023-06-26T13:37:41;1.57;;;1.37;;
3207;SDS011;1616;52.394;9.756;2023-06-26T13:40:08;3.00;;;1.43;;
3207;SDS011;1616;52.394;9.756;2023-06-26T13:42:34;1.40;;;1.30;;
3207;SDS011;1616;52.394;9.756;2023-06-26T13:45:02;1.67;;;1.40;;
3207;SDS011;1616;52.394;9.756;2023-06-26T13:47:28;3.83;;;1.30;;
3207;SDS011;1616;52.394;9.756;2023-06-26T13:49:54;1.87;;;1.47;;
3207;SDS011;1616;52.394;9.756;2023-06-26T13:52:20;5.80;;;1.47;;
3207;SDS011;1616;52.394;9.756;2023-06-26T13:54:46;3.97;;;1.43;;
3207;SDS011;1616;52.394;9.756;2023-06-26T13:57:11;1.40;;;1.30;;
3207;SDS011;1616;52.394;9.756;2023-06-26T13:59:37;1.80;;;1.43;;
3207;SDS011;1616;52.394;9.756;2023-06-26T14:02:05;3.00;;;1.47;;
3207;SDS011;1616;52.394;9.756;2023-06-26T14:04:32;1.93;;;1.30;;
3207;SDS011;1616;52.394;9.756;2023-06-26T14:06:58;3.73;;;1.53;;
3207;SDS011;1616;52.394;9.756;2023-06-26T14:09:24;2.53;;;1.20;;
3207;SDS011;1616;52.394;9.756;2023-06-26T14:11:49;2.20;;;1.20;;
3207;SDS011;1616;52.394;9.756;2023-06-26T14:14:15;6.40;;;1.20;;
3207;SDS011;1616;52.394;9.756;2023-06-26T14:16:41;6.03;;;1.57;;
3207;SDS011;1616;52.394;9.756;2023-06-26T14:19:07;4.63;;;1.40;;
3207;SDS011;1616;52.394;9.756;2023-06-26T14:21:38;3.30;;;1.20;;
3207;SDS011;1616;52.394;9.756;2023-06-26T14:24:03;2.43;;;1.23;;
3207;SDS011;1616;52.394;9.756;2023-06-26T14:26:29;3.30;;;1.37;;
3207;SDS011;1616;52.394;9.756;2023-06-26T14:28:55;2.53;;;1.43;;
3207;SDS011;1616;52.394;9.756;2023-06-26T14:31:20;13.47;;;2.50;;
3207;SDS011;1616;52.394;9.756;2023-06-26T14:33:46;7.83;;;1.40;;
3207;SDS011;1616;52.394;9.756;2023-06-26T14:36:11;3.50;;;1.33;;
3207;SDS011;1616;52.394;9.756;2023-06-26T14:38:37;8.80;;;1.67;;
3207;SDS011;1616;52.394;9.756;2023-06-26T14:41:03;8.83;;;1.60;;
3207;SDS011;1616;52.394;9.756;2023-06-26T14:43:28;10.43;;;1.70;;
3207;SDS011;1616;52.394;9.756;2023-06-26T14:45:54;1.93;;;1.33;;
3207;SDS011;1616;52.394;9.756;2023-06-26T14:48:19;2.00;;;1.40;;
3207;SDS011;1616;52.394;9.756;2023-06-26T14:50:45;8.23;;;1.30;;
3207;SDS011;1616;52.394;9.756;2023-06-26T14:53:11;6.70;;;1.33;;
3207;SDS011;1616;52.394;9.756;2023-06-26T14:55:37;2.07;;;1.37;;
3207;SDS011;1616;52.394;9.756;2023-06-26T14:58:02;2.60;;;1.33;;
3207;SDS011;1616;52.394;9.756;2023-06-26T15:00:28;17.20;;;2.30;;
3207;SDS011;1616;52.394;9.756;2023-06-26T15:02:54;1.50;;;1.23;;
3207;SDS011;1616;52.394;9.756;2023-06-26T15:05:20;3.20;;;1.30;;
3207;SDS011;1616;52.394;9.756;2023-06-26T15:07:46;3.10;;;1.40;;
3207;SDS011;1616;52.394;9.756;2023-06-26T15:10:12;3.10;;;2.03;;
3207;SDS011;1616;52.394;9.756;2023-06-26T15:12:38;3.20;;;1.53;;
3207;SDS011;1616;52.394;9.756;2023-06-26T15:15:04;1.60;;;1.50;;
3207;SDS011;1616;52.394;9.756;2023-06-26T15:17:32;3.73;;;2.07;;
3207;SDS011;1616;52.394;9.756;2023-06-26T15:19:58;7.60;;;1.60;;
3207;SDS011;1616;52.394;9.756;2023-06-26T15:22:26;4.13;;;1.33;;
3207;SDS011;1616;52.394;9.756;2023-06-26T15:24:52;3.60;;;1.50;;
3207;SDS011;1616;52.394;9.756;2023-06-26T15:27:18;6.40;;;1.43;;
3207;SDS011;1616;52.394;9.756;2023-06-26T15:29:43;7.47;;;1.50;;